Latest Weather Observations for Bankstown

IDN60901

Issued at 8:41 pm EST Thursday 24 August 2017 (issued every 10 minutes, with the page automatically refreshed every 10 minutes)

About weather observations | Map of Sydney area stations | Latest observations for Sydney area | Other Formats
Station Details ID: 066137 Name: BANKSTOWN AIRPORT AWS Lat: -33.92 Lon: 150.99 Height: 6.5 m
Data from the previous 72 hours. | See also: Recent months at Bankstown
Date/Time
EST
Temp
°C
App
Temp
°C
Dew
Point
°C
Rel
Hum
%
Delta-T
°C
Wind Press
QNH
hPa
Press
MSL
hPa
Rain since
9am
mm
Dir  Spd
km/h
Gust
km/h
Spd
kts
Gust
kts
24/08:30pm 12.6 9.7 4.8 59 3.6 SW 9 13 5 7 1020.8 1020.8 0.0
24/08:00pm 13.3 10.1 5.2 58 3.8 SW 11 17 6 9 1020.8 1020.8 0.0
24/07:30pm 13.3 10.1 5.2 58 3.8 SSW 11 17 6 9 1020.5 1020.5 0.0
24/07:00pm 13.6 9.4 5.5 58 3.8 S 17 22 9 12 1020.1 1020.1 0.0
24/06:30pm 13.8 8.1 4.9 55 4.1 SSE 24 32 13 17 1019.8 1019.8 0.0
24/06:00pm 13.9 9.0 5.3 56 4.0 S 20 28 11 15 1019.5 1019.5 0.0
24/05:30pm 13.9 8.5 6.3 60 3.6 S 24 33 13 18 1019.1 1019.1 0.0
24/05:00pm 14.4 9.4 6.5 59 3.8 S 22 30 12 16 1018.7 1018.7 0.0
24/04:30pm 14.6 9.3 6.7 59 3.8 SSE 24 35 13 19 1018.6 1018.6 0.0
24/04:00pm 15.1 9.8 6.7 57 4.1 SSE 24 37 13 20 1018.0 1018.0 0.0
24/03:30pm 15.8 9.3 6.5 54 4.5 SSE 30 39 16 21 1017.8 1017.8 0.0
24/03:00pm 16.1 9.2 6.5 53 4.7 SSE 32 43 17 23 1017.5 1017.5 0.0
24/02:30pm 16.1 9.4 5.7 50 5.0 SSE 30 39 16 21 1017.3 1017.3 0.0
24/02:00pm 16.1 9.9 6.3 52 4.8 SSE 28 37 15 20 1017.0 1017.0 0.0
24/01:30pm 16.3 9.3 6.7 53 4.7 SSE 33 44 18 24 1017.1 1017.1 0.0
24/01:00pm 16.5 11.0 5.8 49 5.2 SSE 24 32 13 17 1017.2 1017.2 0.0
24/12:30pm 16.9 11.9 6.4 50 5.1 SSE 22 32 12 17 1017.2 1017.2 0.0
24/12:00pm 17.3 11.9 6.5 49 5.3 SSE 24 33 13 18 1017.3 1017.3 0.0
24/11:30am 17.1 13.3 5.7 47 5.5 SSW 15 24 8 13 1017.4 1017.4 0.0
24/11:00am 18.1 14.7 3.9 39 6.7 SSW 11 19 6 10 1017.7 1017.7 0.0
24/10:30am 17.0 12.5 4.0 42 6.1 SW 17 22 9 12 1018.0 1018.0 0.0
24/10:00am 16.1 11.2 3.9 44 5.6 SW 19 24 10 13 1018.0 1018.0 0.0
24/09:30am 14.8 9.6 3.6 47 5.1 SW 20 32 11 17 1017.9 1017.9 0.0
24/09:00am 13.4 8.2 3.8 52 4.3 WSW 20 28 11 15 1017.8 1017.8 0.0
24/08:30am 11.9 7.8 4.2 59 3.5 WSW 15 20 8 11 1018.0 1018.0 0.0
24/08:00am 10.1 8.2 4.9 70 2.3 SSW 4 11 2 6 1018.1 1018.1 0.0
24/07:30am 7.9 6.1 5.2 83 1.2 SSE 4 6 2 3 1018.0 1018.0 0.0
24/07:00am 4.8 3.2 2.3 84 1.0 CALM 0 0 0 0 1017.8 1017.8 0.0
24/06:30am 6.2 4.9 4.2 87 0.9 CALM 0 0 0 0 1017.7 1017.7 0.0
24/06:00am 4.3 2.8 3.0 91 0.5 CALM 0 0 0 0 1017.2 1017.2 0.0
24/05:30am 5.5 4.1 3.8 89 0.7 CALM 0 0 0 0 1016.8 1016.8 0.0
24/05:00am 4.8 3.2 2.7 86 0.9 CALM 0 0 0 0 1016.8 1016.8 0.0
24/04:30am 5.7 4.3 3.4 85 1.0 CALM 0 0 0 0 1016.7 1016.7 0.0
24/04:00am 6.0 4.6 3.5 84 1.0 CALM 0 0 0 0 1016.6 1016.6 0.0
24/03:30am 6.9 5.1 3.2 77 1.6 SSW 2 7 1 4 1016.5 1016.5 0.0
24/03:00am 8.6 7.4 4.6 76 1.8 CALM 0 0 0 0 1016.2 1016.2 0.0
24/02:30am 8.7 6.1 4.3 74 1.9 SW 7 11 4 6 1016.5 1016.5 0.0
24/02:00am 9.0 8.0 5.4 78 1.6 CALM 0 0 0 0 1016.6 1016.6 0.0
24/01:30am 9.2 7.5 6.1 81 1.4 W 4 6 2 3 1016.7 1016.7 0.0
24/01:00am 9.1 7.9 6.4 83 1.2 W 2 7 1 4 1017.0 1017.0 0.0
24/12:30am 9.9 8.2 7.5 85 1.1 W 6 9 3 5 1017.3 1017.3 0.0
24/12:00am 9.8 9.4 8.2 90 0.8 CALM 0 0 0 0 1017.4 1017.4 0.0
 
Date/Time
EST
Temp
°C
App
Temp
°C
Dew
Point
°C
Rel
Hum
%
Delta-T
°C
Wind Press
QNH
hPa
Press
MSL
hPa
Rain since
9am
mm
Dir  Spd
km/h
Gust
km/h
Spd
kts
Gust
kts
23/11:30pm 9.3 8.9 8.1 92 0.6 CALM 0 0 0 0 1017.4 1017.4 0.0
23/11:00pm 10.0 9.4 9.1 94 0.4 SSW 2 7 1 4 1017.3 1017.3 0.0
23/10:30pm 10.4 10.2 9.0 91 0.7 CALM 0 0 0 0 1017.1 1017.1 0.0
23/10:00pm 10.2 9.9 8.5 89 0.8 CALM 0 0 0 0 1017.1 1017.1 0.0
23/09:30pm 12.0 12.1 10.1 88 1.0 CALM 0 0 0 0 1017.2 1017.2 0.0
23/09:00pm 12.1 12.2 10.0 87 1.1 CALM 0 0 0 0 1017.3 1017.3 0.0
23/08:30pm 12.6 12.7 10.3 86 1.2 CALM 0 0 0 0 1017.2 1017.2 0.0
23/08:00pm 13.4 12.4 10.2 81 1.7 SSW 6 9 3 5 1017.1 1017.1 0.0
23/07:30pm 14.0 12.8 9.4 74 2.4 SSW 6 7 3 4 1016.6 1016.6 0.0
23/07:00pm 16.6 14.1 10.9 69 3.0 NNE 15 22 8 12 1016.2 1016.2 0.0
23/06:30pm 16.6 15.2 10.9 69 3.1 NE 9 13 5 7 1016.2 1016.2 0.0
23/06:00pm 17.4 15.6 10.8 65 3.5 E 11 17 6 9 1016.2 1016.2 0.0
23/05:30pm 18.0 16.1 10.6 62 4.0 E 11 17 6 9 1015.8 1015.8 0.0
23/05:00pm 19.1 16.7 10.1 56 4.8 E 13 19 7 10 1015.5 1015.5 0.0
23/04:30pm 19.9 16.8 10.3 54 5.2 ENE 17 20 9 11 1015.2 1015.2 0.0
23/04:00pm 20.8 17.5 9.7 49 5.9 ENE 17 20 9 11 1015.1 1015.1 0.0
23/03:30pm 21.7 18.8 9.6 46 6.5 ENE 15 20 8 11 1015.0 1015.0 0.0
23/03:00pm 22.6 20.9 6.0 34 8.4 W 4 13 2 7 1015.2 1015.2 0.0
23/02:30pm 22.1 19.8 5.9 35 8.2 S 7 11 4 6 1015.4 1015.4 0.0
23/02:00pm 21.4 19.2 6.1 37 7.7 ESE 7 13 4 7 1015.8 1015.8 0.0
23/01:30pm 21.5 19.8 8.4 43 6.9 SW 7 15 4 8 1016.3 1016.3 0.0
23/01:00pm 20.5 18.9 8.8 47 6.1 SSW 7 11 4 6 1016.7 1016.7 0.0
23/12:30pm 19.5 17.8 8.5 49 5.7 SW 7 13 4 7 1017.5 1017.5 0.0
23/12:00pm 19.2 17.5 8.2 49 5.7 W 7 13 4 7 1018.1 1018.1 0.0
23/11:30am 18.0 15.5 8.0 52 5.1 W 11 15 6 8 1018.9 1018.9 0.0
23/11:00am 16.9 14.2 7.5 54 4.7 W 11 15 6 8 1019.3 1019.3 0.0
23/10:30am 15.7 13.2 6.7 55 4.4 W 9 13 5 7 1019.7 1019.7 0.0
23/10:00am 14.8 12.6 6.4 57 4.0 WNW 7 11 4 6 1020.0 1020.0 0.0
23/09:30am 13.9 11.2 5.8 58 3.8 WNW 9 17 5 9 1020.3 1020.3 0.0
23/09:00am 12.0 9.9 5.6 65 3.0 WNW 6 11 3 6 1020.6 1020.6 0.0
23/08:30am 10.2 7.9 5.8 74 2.0 W 7 9 4 5 1020.8 1020.8 0.0
23/08:00am 8.4 6.0 5.3 81 1.4 NNW 7 9 4 5 1020.7 1020.7 0.0
23/07:30am 7.3 4.9 5.4 88 0.8 NNW 7 9 4 5 1020.8 1020.8 0.0
23/07:00am 5.5 3.0 4.5 93 0.4 S 7 7 4 4 1020.7 1020.7 0.0
23/06:30am 4.9 2.3 4.0 94 0.4 S 7 7 4 4 1020.5 1020.5 0.0
23/06:04am 5.0 2.6 4.3 95 0.3 S 6 7 3 4 1020.5 1020.5 0.0
23/06:00am 4.6 2.5 3.9 95 0.3 S 4 7 2 4 1020.4 1020.4 0.0
23/05:49am 4.1 2.7 3.4 95 0.3 CALM 0 0 0 0 1020.4 1020.4 0.0
23/05:30am 4.2 2.8 3.3 94 0.4 CALM 0 0 0 0 1020.2 1020.2 0.0
23/05:00am 4.2 2.8 3.5 95 0.3 CALM 0 0 0 0 1020.2 1020.2 0.0
23/04:30am 4.4 3.0 3.8 96 0.2 CALM 0 0 0 0 1020.3 1020.3 0.0
23/04:00am 4.1 2.6 3.1 93 0.4 CALM 0 0 0 0 1020.2 1020.2 0.0
23/03:30am 4.2 2.7 2.9 91 0.5 CALM 0 0 0 0 1020.4 1020.4 0.0
23/03:00am 5.2 4.0 4.5 95 0.3 CALM 0 0 0 0 1020.5 1020.5 0.0
23/02:30am 4.9 3.5 3.7 92 0.5 CALM 0 0 0 0 1020.6 1020.6 0.0
23/02:00am 5.5 4.3 4.8 95 0.3 CALM 0 0 0 0 1020.7 1020.7 0.0
23/01:30am 5.1 3.7 3.8 91 0.5 CALM 0 0 0 0 1020.8 1020.8 0.0
23/01:00am 6.0 4.7 4.2 88 0.8 CALM 0 0 0 0 1021.0 1021.0 0.0
23/12:30am 6.4 5.3 5.2 92 0.5 CALM 0 0 0 0 1021.2 1021.2 0.0
23/12:00am 6.3 5.2 4.9 91 0.6 CALM 0 0 0 0 1021.0 1021.0 0.0
 
Date/Time
EST
Temp
°C
App
Temp
°C
Dew
Point
°C
Rel
Hum
%
Delta-T
°C
Wind Press
QNH
hPa
Press
MSL
hPa
Rain since
9am
mm
Dir  Spd
km/h
Gust
km/h
Spd
kts
Gust
kts
22/11:30pm 7.2 6.2 5.7 90 0.7 CALM 0 0 0 0 1021.1 1021.1 0.0
22/11:00pm 7.1 6.0 5.3 88 0.8 CALM 0 0 0 0 1021.4 1021.4 0.0
22/10:30pm 7.6 6.6 5.4 86 1.0 CALM 0 0 0 0 1021.6 1021.6 0.0
22/10:00pm 7.7 6.7 5.5 86 1.0 CALM 0 0 0 0 1021.7 1021.7 0.0
22/09:30pm 8.8 7.8 5.7 81 1.4 CALM 0 0 0 0 1021.7 1021.7 0.0
22/09:00pm 8.7 7.6 5.1 78 1.6 CALM 0 0 0 0 1021.4 1021.4 0.0
22/08:30pm 9.8 9.0 6.3 79 1.6 CALM 0 0 0 0 1021.2 1021.2 0.0
22/08:00pm 10.2 9.2 5.8 74 2.0 CALM 0 0 0 0 1021.1 1021.1 0.0
22/07:30pm 12.9 12.1 6.7 66 3.0 CALM 0 6 0 3 1020.9 1020.9 0.0
22/07:00pm 12.0 11.0 5.4 64 3.0 CALM 0 0 0 0 1020.7 1020.7 0.0
22/06:30pm 14.6 12.5 5.9 56 4.2 ESE 6 7 3 4 1020.4 1020.4 0.0
22/06:00pm 15.2 12.6 6.2 55 4.3 ESE 9 15 5 8 1020.0 1020.0 0.0
22/05:30pm 15.8 12.0 6.0 52 4.7 ESE 15 19 8 10 1019.5 1019.5 0.0
22/05:00pm 16.5 11.9 5.5 48 5.3 ESE 19 22 10 12 1019.3 1019.3 0.0
22/04:30pm 17.1 12.8 5.1 45 5.7 E 17 22 9 12 1018.9 1018.9 0.0
22/04:00pm 17.5 12.4 4.1 41 6.3 E 20 24 11 13 1018.5 1018.5 0.0
22/03:30pm 18.1 13.0 3.2 37 6.9 E 19 26 10 14 1018.2 1018.2 0.0
22/03:00pm 18.2 12.3 4.0 39 6.7 ESE 24 32 13 17 1017.9 1017.9 0.0
22/02:30pm 19.3 13.5 4.3 37 7.2 SE 24 32 13 17 1017.9 1017.9 0.0
22/02:00pm 19.4 15.8 0.4 28 8.4 ENE 9 17 5 9 1017.7 1017.7 0.0
22/01:30pm 18.9 15.6 0.0 28 8.3 N 7 13 4 7 1018.1 1018.1 0.0
22/01:00pm 18.9 15.8 1.4 31 7.9 N 7 11 4 6 1018.3 1018.3 0.0
22/12:30pm 19.1 16.4 2.9 34 7.5 WNW 6 15 3 8 1018.7 1018.7 0.0
22/12:00pm 17.8 14.5 2.5 36 7.0 NNW 9 13 5 7 1019.2 1019.2 0.0
22/11:30am 17.7 14.1 2.8 37 6.8 NNW 11 15 6 8 1019.6 1019.6 0.0
22/11:00am 17.0 14.9 4.0 42 6.1 W 4 9 2 5 1019.8 1019.8 0.0
22/10:30am 16.3 13.8 4.7 46 5.5 W 7 11 4 6 1020.0 1020.0 0.0
22/10:00am 15.1 11.9 5.3 52 4.6 NW 11 13 6 7 1020.1 1020.1 0.0
22/09:30am 14.2 11.4 5.0 54 4.3 NW 9 11 5 6 1020.0 1020.0 0.0
22/09:00am 13.1 10.3 5.0 58 3.7 W 9 13 5 7 1020.1 1020.1 0.0
22/08:30am 11.5 9.0 4.7 63 3.1 WSW 7 11 4 6 1020.1 1020.1 0.0
22/08:00am 10.1 7.6 4.9 70 2.3 WSW 7 13 4 7 1019.9 1019.9 0.0
22/07:30am 8.8 7.4 5.5 80 1.5 NNW 2 6 1 3 1019.6 1019.6 0.0
22/07:00am 7.1 4.8 4.8 85 1.0 W 6 7 3 4 1019.2 1019.2 0.0
22/06:30am 5.9 4.6 4.2 89 0.7 CALM 0 0 0 0 1018.9 1018.9 0.0
22/06:00am 6.1 4.8 4.1 87 0.8 CALM 0 0 0 0 1018.4 1018.4 0.0
22/05:30am 7.6 6.5 4.9 83 1.2 CALM 0 0 0 0 1018.2 1018.2 0.0
22/05:00am 7.0 5.2 5.3 89 0.7 SSW 4 6 2 3 1018.2 1018.2 0.0
22/04:30am 8.4 7.5 6.0 85 1.1 CALM 0 0 0 0 1017.8 1017.8 0.0
22/04:00am 8.4 6.3 5.7 83 1.2 SSW 6 7 3 4 1017.4 1017.4 0.0
22/03:30am 8.8 6.9 6.6 86 1.0 SSW 6 7 3 4 1017.2 1017.2 0.0
22/03:00am 8.8 6.8 6.1 83 1.2 SSW 6 7 3 4 1017.2 1017.2 0.0
22/02:30am 9.4 8.7 6.8 84 1.2 CALM 0 0 0 0 1017.4 1017.4 0.0
22/02:00am 9.4 8.7 7.0 85 1.1 CALM 0 0 0 0 1017.5 1017.5 0.0
22/01:30am 9.1 8.5 7.2 88 0.9 CALM 0 0 0 0 1017.6 1017.6 0.0
22/01:00am 10.1 9.4 6.8 80 1.5 CALM 0 0 0 0 1017.9 1017.9 0.0
22/12:30am 10.4 9.0 7.3 81 1.5 SSW 4 6 2 3 1018.1 1018.1 0.0
22/12:00am 10.2 8.5 7.4 83 1.3 SSW 6 7 3 4 1018.1 1018.1 0.0
 
Date/Time
EST
Temp
°C
App
Temp
°C
Dew
Point
°C
Rel
Hum
%
Delta-T
°C
Wind Press
QNH
hPa
Press
MSL
hPa
Rain since
9am
mm
Dir  Spd
km/h
Gust
km/h
Spd
kts
Gust
kts
21/11:30pm 10.8 10.2 7.3 79 1.7 CALM 0 2 0 1 1018.2 1018.2 0.0
21/11:00pm 11.6 9.6 6.3 70 2.5 SSE 6 9 3 5 1018.5 1018.5 0.0
21/10:30pm 11.7 9.7 6.4 70 2.5 SW 6 9 3 5 1018.4 1018.4 0.0
21/10:00pm 11.4 9.2 6.3 71 2.4 SW 7 9 4 5 1018.3 1018.3 0.0
21/09:30pm 11.9 10.8 7.0 72 2.3 S 2 7 1 4 1018.1 1018.1 0.0
21/09:00pm 12.0 11.5 7.7 75 2.1 CALM 0 7 0 4 1018.1 1018.1 0.0

Latest Capital City Observations: Canberra | Sydney | Melbourne | Brisbane | Adelaide | Perth | Hobart | Darwin

Other Formats:

Comma delimited format used in spreadsheet applications
http://www.bom.gov.au/fwo/IDN60901/IDN60901.94765.axf

JavaScript Object Notation format (JSON) in row-major order
http://www.bom.gov.au/fwo/IDN60901/IDN60901.94765.json